Alert, Canada
Current Conditions -  °F | °C
As of 3:00 PM on Monday 24 Nov 2014 (Local Time) from CWEU Reporting Station
Few Clouds Few Clouds  
Wind Chill: -35°   Ceiling: Unl
Heat Index: -11°   Visibility: 15mi
Dew Point: -20°   Wind: 17mph
Humidity: 64%   Direction: 280°W
Pressure: 29.42"   Gusts: 24mph
Location:  82.47°N, 62.5°W
Report Text: CWEU 242000Z 28015G21KT 15SM FEW100 M24/M29 A2942 RMK AC1SLP965
Loading
Personal Weather Stations






























Interactive Weather Map New forecast layout! Learn more

10-Day Weather Forecast

Advertisements
Track Severe Weather on mobile